YBRM Airport Information

Runway Information
Runway 10 Length 8064 ft width 148 ft
Elevation 56 ft Threshold 295 ft Heading 105
Runway 28 Length 8064 ft Width 148 ft
Elevation 22 ft Threshold 689 ft Heading 285
Airport Frequencies
Type ATIS Name ATIS Frequency 126.55 MHZ
Type CTAF Name CTAF Frequency 126 MHZ
Type FSS Name BRISBANE C Frequency 123.9 MHZ
Airport Navaids
Type NDB-DME Name Broome Frequency 320 KHZ
Airport Weather Information & NOTAM
ADDS - METARS form results

(1614 UTC 01 March 2021)
Data provider http://aviationweather.gov/metar/data/
 
METAR text: YBRM 011600Z AUTO 28008KT 9999 // SCT023 29/24 Q1009 RF00.0/000.0
Conditions at: YBRM (BROOME AIRPORT , AU) observed 1600 UTC 01 March 2021
Temperature: 29.0°C (84°F)
Dewpoint: 24.0°C (75°F) [RH = 74%]
Pressure (altimeter): 29.79 inches Hg (1009.0 mb)
Winds: from the W (280 degrees) at 9 MPH (8 knots; 4.1 m/s)
Visibility: 6 or more miles (10+ km)
Ceiling: at least 12,000 feet AGL
Clouds: scattered clouds at 2300 feet AGL
Weather: no significant weather observed at this time

METAR text: YBRM 011530Z AUTO 28008KT 9999 // SCT024 29/24 Q1009 RF00.0/000.0
Conditions at: YBRM (BROOME AIRPORT , AU) observed 1530 UTC 01 March 2021
Temperature: 29.0°C (84°F)
Dewpoint: 24.0°C (75°F) [RH = 74%]
Pressure (altimeter): 29.79 inches Hg (1009.0 mb)
Winds: from the W (280 degrees) at 9 MPH (8 knots; 4.1 m/s)
Visibility: 6 or more miles (10+ km)
Ceiling: at least 12,000 feet AGL
Clouds: scattered clouds at 2400 feet AGL
Weather: no significant weather observed at this time

Forecast for: YBRM (BROOME AIRPORT , AU)
Text: TAF YBRM 011015Z 0112/0212 25006KT 9999 FEW020
Forecast period: 1200 UTC 01 March 2021 to 0000 UTC 02 March 2021
Forecast type: FROM: standard forecast or significant change
Winds: from the WSW (250 degrees) at 7 MPH (6 knots; 3.1 m/s)
Visibility: 6 or more miles (10+ km)
Ceiling: at least 12,000 feet AGL
Clouds: few clouds at 2000 feet AGL
Weather: no significant weather forecast for this period
Text: FM020000 29010KT CAVOK
Forecast period: 0000 to 1200 UTC 02 March 2021
Forecast type: FROM: standard forecast or significant change
Winds: from the WNW (290 degrees) at 12 MPH (10 knots; 5.1 m/s)
Visibility: 6 or more miles (10+ km)
Ceiling: unknown
Clouds: missing
Weather: NSW  (no significant weather)